To NAV CANADA Home Page Login to a new session Search on AWWS site Feedback and Comments Disclaimer Vers la page française équivalente Tips FAQ What's new on the site To the Forecasts and Observations / NOTAM section To "File a Flight Plan" website Publications and other links Update of the User's profile FIC Telephone Numbers My Weather Data Folder Route Weather Data Regional Weather Data Local Weather Data To the Forecasts and Observations / NOTAM section
Request Generated 02/24/2017 at 03:35:27 UTC . Weather information available at that time is displayed.

METAR/TAF

If you find any discrepancies between the coded METAR/TAF and the plain language METAR/TAF please use the coded METAR/TAF. LWIS bulletins are not decoded in plain language.

CALGARY/SPRINGBANK/AB    (show WxCam)

METAR CYBW 240300Z AUTO 14008KT 9SM FEW028 M08/M09 A2991 RMK SLP202=
METAR
LOCATION
CYBW - CALGARY/SPRINGBANK/AB
DATE - TIME
24 FEBRUARY 2017 - 0300 UTC
WIND
140 TRUE @ 8  KNOTS
VISIBILITY
9 STAT.  MILES
RUNWAY VISUAL RANGE
WEATHER
CLOUDINESS
FEW CLOUDS (1/8 - 2/8) 2800  FT
TEMP / DEWPOINT
-8 C / -9 C
ALTIMETER
29.91 IN HG
RECENT WEATHER
WIND SHEAR

METAR CYBW 240200Z AUTO 15009KT 9SM CLR M07/M09 A2991 RMK SLP199=
METAR
LOCATION
CYBW - CALGARY/SPRINGBANK/AB
DATE - TIME
24 FEBRUARY 2017 - 0200 UTC
WIND
150 TRUE @ 9  KNOTS
VISIBILITY
9 STAT.  MILES
RUNWAY VISUAL RANGE
WEATHER
CLOUDINESS
CLEAR SKY
TEMP / DEWPOINT
-7 C / -9 C
ALTIMETER
29.91 IN HG
RECENT WEATHER
WIND SHEAR

METAR CYBW 240100Z AUTO 15009KT 9SM CLR M06/M09 A2991 RMK SLP195=
METAR
LOCATION
CYBW - CALGARY/SPRINGBANK/AB
DATE - TIME
24 FEBRUARY 2017 - 0100 UTC
WIND
150 TRUE @ 9  KNOTS
VISIBILITY
9 STAT.  MILES
RUNWAY VISUAL RANGE
WEATHER
CLOUDINESS
CLEAR SKY
TEMP / DEWPOINT
-6 C / -9 C
ALTIMETER
29.91 IN HG
RECENT WEATHER
WIND SHEAR

TAF CYBW 232349Z 2400/2405 16008KT P6SM SCT040 TEMPO 2400/2403 4SM -SHSN BKN025 RMK FCST BASED ON AUTO OBS. NXT FCST WILL BE ISSUED AT 241245Z=
TAF
LOCATION

CYBW - CALGARY/SPRINGBANK/AB
VALIDITY [UTC]
23 FEB - 2349 to
24 FEB - 0500
 
TIMES
[UTC]
WIND
[DEGREES TRUE]
VISIBILITY
[STAT. MILES]
WEATHER
CLOUDINESS
[FEET AGL]
 
24 FEB - 0000 to
24 FEB - 0500
160 @ 8 KNOTS
6+
NIL
4000 SCATTERED
TEMPORARY CHANGES
24 FEB - 0000 to
24 FEB - 0300
 
4
LIGHT SNOW SHOWER
2500 BROKEN
REMARKS
THE FORECAST IS BASED ON AUTOMATIC OBSERVATIONS - THE NEXT FORECAST WILL BE ISSUED AT 1245 UTC ON DAY 24


Your time UTC time
Weather data provided by Environment Canada and NAV CANADA